CheckWX is a tool to help pilots better visualize weather data.  It is not intended as a substitute for an official pre-flight weather briefing.

16:53:42 UTC

LELL TAF
Sabadell Airport
Sabadell, Spain
TAF LELL 181400Z 1815/1915 20010KT 9999 FEW040 TX29/1913Z TN15/1905Z BECMG 1818/1820 26004KT BECMG 1906/1909 18007KT

Jun-18@
15:00 UTC

Jun-18 @ 15:00 UTC

Jun-18@
18:00 UTC

Jun-18 @ 18:00 UTC

TAF LELL 181400Z 1815/1915 20010KT 9999 FEW040 TX29/1913Z TN15/1905Z
Wind
  • 200° at 10 KTS
Cloud Levels
  • Few at 4,000' AGL

Jun-18@
18:00 UTC

Jun-18 @ 18:00 UTC

Jun-19@
06:00 UTC

Jun-19 @ 06:00 UTC

BECMG 1818/1820 26004KT

Becoming

Becoming Conditions expected by Tue, Jun 18, 2019 @ 20:00 UTC

Wind
  • 260° at 4 KTS
Cloud Levels
  • Few at 4,000' AGL

Jun-19@
06:00 UTC

Jun-19 @ 06:00 UTC

Jun-19@
15:00 UTC

Jun-19 @ 15:00 UTC

BECMG 1906/1909 18007KT

Becoming

Becoming Conditions expected by Wed, Jun 19, 2019 @ 09:00 UTC

Wind
  • 180° at 7 KTS
Cloud Levels
  • Few at 4,000' AGL